sensor_id;sensor_type;location;lat;lon;timestamp;temperature;humidity
24207;DHT22;12351;52.284;9.160;2023-07-13T00:02:19;20.00;99.90
24207;DHT22;12351;52.284;9.160;2023-07-13T00:05:05;20.00;99.90
24207;DHT22;12351;52.284;9.160;2023-07-13T00:07:53;20.00;99.90
24207;DHT22;12351;52.284;9.160;2023-07-13T00:10:41;20.00;99.90
24207;DHT22;12351;52.284;9.160;2023-07-13T00:13:29;19.90;99.90
24207;DHT22;12351;52.284;9.160;2023-07-13T00:16:17;19.90;99.90
24207;DHT22;12351;52.284;9.160;2023-07-13T00:19:05;19.90;68.00
24207;DHT22;12351;52.284;9.160;2023-07-13T00:21:52;19.90;49.90
24207;DHT22;12351;52.284;9.160;2023-07-13T00:24:40;19.80;1.00
24207;DHT22;12351;52.284;9.160;2023-07-13T00:27:27;19.80;1.00
24207;DHT22;12351;52.284;9.160;2023-07-13T00:30:16;19.80;1.00
24207;DHT22;12351;52.284;9.160;2023-07-13T00:33:03;19.80;1.00
24207;DHT22;12351;52.284;9.160;2023-07-13T00:35:50;19.80;1.00
24207;DHT22;12351;52.284;9.160;2023-07-13T00:38:37;19.70;1.00
24207;DHT22;12351;52.284;9.160;2023-07-13T00:41:24;19.70;73.70
24207;DHT22;12351;52.284;9.160;2023-07-13T00:44:14;19.70;1.00
24207;DHT22;12351;52.284;9.160;2023-07-13T00:47:01;19.70;1.00
24207;DHT22;12351;52.284;9.160;2023-07-13T00:49:47;19.70;16.40
24207;DHT22;12351;52.284;9.160;2023-07-13T00:52:36;19.70;96.90
24207;DHT22;12351;52.284;9.160;2023-07-13T00:55:24;19.60;1.00
24207;DHT22;12351;52.284;9.160;2023-07-13T00:58:11;19.60;99.90
24207;DHT22;12351;52.284;9.160;2023-07-13T01:00:58;19.60;5.10
24207;DHT22;12351;52.284;9.160;2023-07-13T01:03:45;19.60;84.50
24207;DHT22;12351;52.284;9.160;2023-07-13T01:06:32;19.60;6.70
24207;DHT22;12351;52.284;9.160;2023-07-13T01:09:20;19.60;71.80
24207;DHT22;12351;52.284;9.160;2023-07-13T01:12:07;19.60;1.00
24207;DHT22;12351;52.284;9.160;2023-07-13T01:14:57;19.60;17.90
24207;DHT22;12351;52.284;9.160;2023-07-13T01:17:44;19.50;10.10
24207;DHT22;12351;52.284;9.160;2023-07-13T01:20:33;19.50;99.90
24207;DHT22;12351;52.284;9.160;2023-07-13T01:23:22;19.50;99.90
24207;DHT22;12351;52.284;9.160;2023-07-13T01:26:11;19.50;99.90
24207;DHT22;12351;52.284;9.160;2023-07-13T01:28:57;19.40;99.90
24207;DHT22;12351;52.284;9.160;2023-07-13T01:31:44;19.50;99.90
24207;DHT22;12351;52.284;9.160;2023-07-13T01:34:31;19.50;99.90
24207;DHT22;12351;52.284;9.160;2023-07-13T01:37:18;19.40;99.90
24207;DHT22;12351;52.284;9.160;2023-07-13T01:40:05;19.40;99.90
24207;DHT22;12351;52.284;9.160;2023-07-13T01:42:54;19.40;99.90
24207;DHT22;12351;52.284;9.160;2023-07-13T01:45:41;19.40;99.90
24207;DHT22;12351;52.284;9.160;2023-07-13T01:48:29;19.40;99.90
24207;DHT22;12351;52.284;9.160;2023-07-13T01:51:17;19.30;99.90
24207;DHT22;12351;52.284;9.160;2023-07-13T01:54:04;19.30;99.90
24207;DHT22;12351;52.284;9.160;2023-07-13T01:59:39;19.30;99.90
24207;DHT22;12351;52.284;9.160;2023-07-13T02:02:26;19.30;99.90
24207;DHT22;12351;52.284;9.160;2023-07-13T02:05:13;19.30;99.90
24207;DHT22;12351;52.284;9.160;2023-07-13T02:08:00;19.30;99.90
24207;DHT22;12351;52.284;9.160;2023-07-13T02:10:46;19.20;99.90
24207;DHT22;12351;52.284;9.160;2023-07-13T02:13:33;19.30;99.90
24207;DHT22;12351;52.284;9.160;2023-07-13T02:16:20;19.20;99.90
24207;DHT22;12351;52.284;9.160;2023-07-13T02:19:07;19.20;99.90
24207;DHT22;12351;52.284;9.160;2023-07-13T02:21:54;19.20;99.90
24207;DHT22;12351;52.284;9.160;2023-07-13T02:24:41;19.20;99.90
24207;DHT22;12351;52.284;9.160;2023-07-13T02:27:28;19.10;99.90
24207;DHT22;12351;52.284;9.160;2023-07-13T02:30:15;19.20;99.90
24207;DHT22;12351;52.284;9.160;2023-07-13T02:33:02;19.10;89.50
24207;DHT22;12351;52.284;9.160;2023-07-13T02:35:48;19.10;1.00
24207;DHT22;12351;52.284;9.160;2023-07-13T02:38:36;19.10;1.00
24207;DHT22;12351;52.284;9.160;2023-07-13T02:41:23;19.10;1.00
24207;DHT22;12351;52.284;9.160;2023-07-13T02:44:10;19.20;1.00
24207;DHT22;12351;52.284;9.160;2023-07-13T02:46:57;19.20;1.00
24207;DHT22;12351;52.284;9.160;2023-07-13T02:49:45;19.10;1.00
24207;DHT22;12351;52.284;9.160;2023-07-13T02:52:32;19.10;1.00
24207;DHT22;12351;52.284;9.160;2023-07-13T02:55:18;19.10;1.00
24207;DHT22;12351;52.284;9.160;2023-07-13T02:58:05;19.10;99.90
24207;DHT22;12351;52.284;9.160;2023-07-13T03:00:53;19.20;1.00
24207;DHT22;12351;52.284;9.160;2023-07-13T03:03:39;19.20;99.90
24207;DHT22;12351;52.284;9.160;2023-07-13T03:06:27;19.20;1.00
24207;DHT22;12351;52.284;9.160;2023-07-13T03:09:15;19.20;1.00
24207;DHT22;12351;52.284;9.160;2023-07-13T03:12:03;19.20;1.00
24207;DHT22;12351;52.284;9.160;2023-07-13T03:14:50;19.20;1.00
24207;DHT22;12351;52.284;9.160;2023-07-13T03:17:37;19.10;1.00
24207;DHT22;12351;52.284;9.160;2023-07-13T03:20:24;19.20;1.00
24207;DHT22;12351;52.284;9.160;2023-07-13T03:23:11;19.20;98.60
24207;DHT22;12351;52.284;9.160;2023-07-13T03:26:01;19.10;1.00
24207;DHT22;12351;52.284;9.160;2023-07-13T03:28:49;19.10;1.00
24207;DHT22;12351;52.284;9.160;2023-07-13T03:31:37;19.10;99.90
24207;DHT22;12351;52.284;9.160;2023-07-13T03:34:27;19.00;99.90
24207;DHT22;12351;52.284;9.160;2023-07-13T03:37:14;19.00;99.90
24207;DHT22;12351;52.284;9.160;2023-07-13T03:40:01;19.10;99.90
24207;DHT22;12351;52.284;9.160;2023-07-13T03:42:48;19.10;99.90
24207;DHT22;12351;52.284;9.160;2023-07-13T03:45:38;19.00;82.50
24207;DHT22;12351;52.284;9.160;2023-07-13T03:48:25;19.00;30.90
24207;DHT22;12351;52.284;9.160;2023-07-13T03:51:13;19.00;1.00
24207;DHT22;12351;52.284;9.160;2023-07-13T03:54:00;19.00;1.00
24207;DHT22;12351;52.284;9.160;2023-07-13T03:56:48;19.00;1.00
24207;DHT22;12351;52.284;9.160;2023-07-13T03:59:35;19.00;1.00
24207;DHT22;12351;52.284;9.160;2023-07-13T04:02:22;19.00;1.00
24207;DHT22;12351;52.284;9.160;2023-07-13T04:05:09;19.00;1.00
24207;DHT22;12351;52.284;9.160;2023-07-13T04:07:56;18.90;1.00
24207;DHT22;12351;52.284;9.160;2023-07-13T04:10:44;19.00;1.00
24207;DHT22;12351;52.284;9.160;2023-07-13T04:13:31;19.00;1.00
24207;DHT22;12351;52.284;9.160;2023-07-13T04:16:18;19.00;1.00
24207;DHT22;12351;52.284;9.160;2023-07-13T04:19:05;19.10;1.00
24207;DHT22;12351;52.284;9.160;2023-07-13T04:21:52;19.00;1.00
24207;DHT22;12351;52.284;9.160;2023-07-13T04:24:43;18.90;1.00
24207;DHT22;12351;52.284;9.160;2023-07-13T04:27:30;18.90;1.00
24207;DHT22;12351;52.284;9.160;2023-07-13T04:30:17;19.00;93.50
24207;DHT22;12351;52.284;9.160;2023-07-13T04:33:04;19.00;1.00
24207;DHT22;12351;52.284;9.160;2023-07-13T04:35:53;19.00;1.00
24207;DHT22;12351;52.284;9.160;2023-07-13T04:38:41;19.00;1.00
24207;DHT22;12351;52.284;9.160;2023-07-13T04:41:29;19.10;1.00
24207;DHT22;12351;52.284;9.160;2023-07-13T04:44:15;19.20;1.00
24207;DHT22;12351;52.284;9.160;2023-07-13T04:47:03;19.10;1.00
24207;DHT22;12351;52.284;9.160;2023-07-13T04:49:49;19.10;1.00
24207;DHT22;12351;52.284;9.160;2023-07-13T04:52:36;19.10;1.00
24207;DHT22;12351;52.284;9.160;2023-07-13T04:55:23;19.20;1.00
24207;DHT22;12351;52.284;9.160;2023-07-13T04:58:10;19.20;1.00
24207;DHT22;12351;52.284;9.160;2023-07-13T05:00:59;19.20;1.00
24207;DHT22;12351;52.284;9.160;2023-07-13T05:03:46;19.30;1.00
24207;DHT22;12351;52.284;9.160;2023-07-13T05:06:33;19.30;1.00
24207;DHT22;12351;52.284;9.160;2023-07-13T05:09:20;19.30;1.00
24207;DHT22;12351;52.284;9.160;2023-07-13T05:12:08;19.30;1.00
24207;DHT22;12351;52.284;9.160;2023-07-13T05:14:55;19.30;1.00
24207;DHT22;12351;52.284;9.160;2023-07-13T05:17:42;19.40;1.00
24207;DHT22;12351;52.284;9.160;2023-07-13T05:20:29;19.50;1.00
24207;DHT22;12351;52.284;9.160;2023-07-13T05:23:16;19.50;99.90
24207;DHT22;12351;52.284;9.160;2023-07-13T05:26:03;19.50;99.90
24207;DHT22;12351;52.284;9.160;2023-07-13T05:28:50;19.60;28.30
24207;DHT22;12351;52.284;9.160;2023-07-13T05:31:37;19.50;1.00
24207;DHT22;12351;52.284;9.160;2023-07-13T05:34:24;19.50;1.00
24207;DHT22;12351;52.284;9.160;2023-07-13T05:37:12;19.60;55.90
24207;DHT22;12351;52.284;9.160;2023-07-13T05:39:59;19.70;1.00
24207;DHT22;12351;52.284;9.160;2023-07-13T05:42:46;19.80;1.00
24207;DHT22;12351;52.284;9.160;2023-07-13T05:45:33;19.60;1.00
24207;DHT22;12351;52.284;9.160;2023-07-13T05:48:19;19.70;99.90
24207;DHT22;12351;52.284;9.160;2023-07-13T05:51:06;19.80;1.00
24207;DHT22;12351;52.284;9.160;2023-07-13T05:53:53;19.80;99.90
24207;DHT22;12351;52.284;9.160;2023-07-13T05:56:40;19.80;1.00
24207;DHT22;12351;52.284;9.160;2023-07-13T05:59:27;19.90;1.00
24207;DHT22;12351;52.284;9.160;2023-07-13T06:02:14;19.90;1.00
24207;DHT22;12351;52.284;9.160;2023-07-13T06:05:01;19.90;99.90
24207;DHT22;12351;52.284;9.160;2023-07-13T06:07:48;20.00;99.90
24207;DHT22;12351;52.284;9.160;2023-07-13T06:10:36;20.00;99.90
24207;DHT22;12351;52.284;9.160;2023-07-13T06:13:23;20.10;99.90
24207;DHT22;12351;52.284;9.160;2023-07-13T06:16:10;20.20;99.90
24207;DHT22;12351;52.284;9.160;2023-07-13T06:18:57;20.20;99.90
24207;DHT22;12351;52.284;9.160;2023-07-13T06:21:44;20.20;1.00
24207;DHT22;12351;52.284;9.160;2023-07-13T06:24:31;20.30;1.00
24207;DHT22;12351;52.284;9.160;2023-07-13T06:27:18;20.30;1.00
24207;DHT22;12351;52.284;9.160;2023-07-13T06:30:05;20.30;1.00
24207;DHT22;12351;52.284;9.160;2023-07-13T06:32:52;20.30;8.10
24207;DHT22;12351;52.284;9.160;2023-07-13T06:35:39;20.30;1.00
24207;DHT22;12351;52.284;9.160;2023-07-13T06:38:26;20.40;1.00
24207;DHT22;12351;52.284;9.160;2023-07-13T06:41:13;20.50;1.00
24207;DHT22;12351;52.284;9.160;2023-07-13T06:43:59;20.50;1.00
24207;DHT22;12351;52.284;9.160;2023-07-13T06:46:46;20.40;1.00
24207;DHT22;12351;52.284;9.160;2023-07-13T06:49:33;20.40;1.00
24207;DHT22;12351;52.284;9.160;2023-07-13T06:52:20;20.50;1.00
24207;DHT22;12351;52.284;9.160;2023-07-13T06:55:07;20.50;1.00
24207;DHT22;12351;52.284;9.160;2023-07-13T06:57:54;20.50;1.00
24207;DHT22;12351;52.284;9.160;2023-07-13T07:00:41;20.50;1.00
24207;DHT22;12351;52.284;9.160;2023-07-13T07:03:27;20.60;1.00
24207;DHT22;12351;52.284;9.160;2023-07-13T07:06:19;20.40;99.90
24207;DHT22;12351;52.284;9.160;2023-07-13T07:09:04;20.40;99.90
24207;DHT22;12351;52.284;9.160;2023-07-13T07:11:51;20.50;1.00
24207;DHT22;12351;52.284;9.160;2023-07-13T07:14:38;20.50;99.90
24207;DHT22;12351;52.284;9.160;2023-07-13T07:17:24;20.60;99.90
24207;DHT22;12351;52.284;9.160;2023-07-13T07:20:12;20.70;99.90
24207;DHT22;12351;52.284;9.160;2023-07-13T07:22:59;20.80;99.90
24207;DHT22;12351;52.284;9.160;2023-07-13T07:25:46;20.80;99.90
24207;DHT22;12351;52.284;9.160;2023-07-13T07:28:33;21.00;99.90
24207;DHT22;12351;52.284;9.160;2023-07-13T07:31:20;21.10;99.90
24207;DHT22;12351;52.284;9.160;2023-07-13T07:34:07;21.10;99.90
24207;DHT22;12351;52.284;9.160;2023-07-13T07:36:54;21.00;99.90
24207;DHT22;12351;52.284;9.160;2023-07-13T07:39:43;21.00;99.90
24207;DHT22;12351;52.284;9.160;2023-07-13T07:42:30;21.00;99.90
24207;DHT22;12351;52.284;9.160;2023-07-13T07:45:17;21.00;99.90
24207;DHT22;12351;52.284;9.160;2023-07-13T07:48:05;21.00;99.90
24207;DHT22;12351;52.284;9.160;2023-07-13T07:50:52;21.10;99.90
24207;DHT22;12351;52.284;9.160;2023-07-13T07:53:39;21.10;99.90
24207;DHT22;12351;52.284;9.160;2023-07-13T07:56:26;21.20;99.90
24207;DHT22;12351;52.284;9.160;2023-07-13T07:59:13;21.20;99.90
24207;DHT22;12351;52.284;9.160;2023-07-13T08:01:59;21.20;99.90
24207;DHT22;12351;52.284;9.160;2023-07-13T08:04:48;21.20;99.90
24207;DHT22;12351;52.284;9.160;2023-07-13T08:07:35;21.10;99.90
24207;DHT22;12351;52.284;9.160;2023-07-13T08:10:22;21.10;99.90
24207;DHT22;12351;52.284;9.160;2023-07-13T08:13:09;21.20;99.90
24207;DHT22;12351;52.284;9.160;2023-07-13T08:15:56;21.20;99.90
24207;DHT22;12351;52.284;9.160;2023-07-13T08:18:43;21.30;99.90
24207;DHT22;12351;52.284;9.160;2023-07-13T08:21:29;21.30;1.00
24207;DHT22;12351;52.284;9.160;2023-07-13T08:24:16;21.50;1.00
24207;DHT22;12351;52.284;9.160;2023-07-13T08:27:04;21.50;1.00
24207;DHT22;12351;52.284;9.160;2023-07-13T08:29:51;21.50;1.00
24207;DHT22;12351;52.284;9.160;2023-07-13T08:32:38;21.50;1.00
24207;DHT22;12351;52.284;9.160;2023-07-13T08:35:25;21.50;99.90
24207;DHT22;12351;52.284;9.160;2023-07-13T08:38:12;21.50;99.90
24207;DHT22;12351;52.284;9.160;2023-07-13T08:40:59;21.50;99.90
24207;DHT22;12351;52.284;9.160;2023-07-13T08:43:50;21.50;99.90
24207;DHT22;12351;52.284;9.160;2023-07-13T08:46:38;21.60;99.90
24207;DHT22;12351;52.284;9.160;2023-07-13T08:49:26;21.50;99.90
24207;DHT22;12351;52.284;9.160;2023-07-13T08:55:16;21.60;99.90
24207;DHT22;12351;52.284;9.160;2023-07-13T09:03:37;21.50;99.90
24207;DHT22;12351;52.284;9.160;2023-07-13T09:06:27;21.50;1.00
24207;DHT22;12351;52.284;9.160;2023-07-13T09:09:17;21.40;99.90
24207;DHT22;12351;52.284;9.160;2023-07-13T09:14:53;21.20;99.90
24207;DHT22;12351;52.284;9.160;2023-07-13T09:17:45;21.20;99.90
24207;DHT22;12351;52.284;9.160;2023-07-13T09:20:34;21.30;99.90
24207;DHT22;12351;52.284;9.160;2023-07-13T09:23:22;21.10;99.90
24207;DHT22;12351;52.284;9.160;2023-07-13T09:29:06;21.10;99.90
24207;DHT22;12351;52.284;9.160;2023-07-13T09:31:52;21.20;23.80
24207;DHT22;12351;52.284;9.160;2023-07-13T09:34:39;21.10;99.90
24207;DHT22;12351;52.284;9.160;2023-07-13T09:37:29;21.20;59.60
24207;DHT22;12351;52.284;9.160;2023-07-13T09:40:20;21.30;99.90
24207;DHT22;12351;52.284;9.160;2023-07-13T09:43:06;21.50;99.90
24207;DHT22;12351;52.284;9.160;2023-07-13T09:45:56;21.50;14.80
24207;DHT22;12351;52.284;9.160;2023-07-13T09:48:43;21.40;1.00
24207;DHT22;12351;52.284;9.160;2023-07-13T09:51:30;21.40;1.00
24207;DHT22;12351;52.284;9.160;2023-07-13T09:54:21;21.50;80.90
24207;DHT22;12351;52.284;9.160;2023-07-13T09:57:12;21.50;1.00
24207;DHT22;12351;52.284;9.160;2023-07-13T09:59:59;21.60;1.00
24207;DHT22;12351;52.284;9.160;2023-07-13T10:02:46;21.70;1.00
24207;DHT22;12351;52.284;9.160;2023-07-13T10:05:36;21.70;1.00
24207;DHT22;12351;52.284;9.160;2023-07-13T10:08:26;21.70;1.00
24207;DHT22;12351;52.284;9.160;2023-07-13T10:11:17;21.60;1.00
24207;DHT22;12351;52.284;9.160;2023-07-13T10:16:58;21.70;1.00
24207;DHT22;12351;52.284;9.160;2023-07-13T10:19:44;21.70;1.00
24207;DHT22;12351;52.284;9.160;2023-07-13T10:25:14;21.80;1.00
24207;DHT22;12351;52.284;9.160;2023-07-13T10:28:06;21.70;1.00
24207;DHT22;12351;52.284;9.160;2023-07-13T10:30:53;21.60;1.00
24207;DHT22;12351;52.284;9.160;2023-07-13T10:33:41;21.80;1.00
24207;DHT22;12351;52.284;9.160;2023-07-13T10:36:32;21.90;1.00
24207;DHT22;12351;52.284;9.160;2023-07-13T10:39:22;21.90;1.00
24207;DHT22;12351;52.284;9.160;2023-07-13T10:42:13;21.90;1.00
24207;DHT22;12351;52.284;9.160;2023-07-13T10:45:01;21.90;1.00
24207;DHT22;12351;52.284;9.160;2023-07-13T10:47:51;21.80;1.00
24207;DHT22;12351;52.284;9.160;2023-07-13T10:50:43;21.60;1.00
24207;DHT22;12351;52.284;9.160;2023-07-13T10:53:34;21.50;1.00
24207;DHT22;12351;52.284;9.160;2023-07-13T10:56:26;21.80;1.00
24207;DHT22;12351;52.284;9.160;2023-07-13T11:04:53;22.00;1.00
24207;DHT22;12351;52.284;9.160;2023-07-13T11:27:32;22.30;1.00
24207;DHT22;12351;52.284;9.160;2023-07-13T11:33:10;22.30;1.00
24207;DHT22;12351;52.284;9.160;2023-07-13T11:38:38;22.20;1.00
24207;DHT22;12351;52.284;9.160;2023-07-13T11:41:27;22.20;1.00
24207;DHT22;12351;52.284;9.160;2023-07-13T11:44:17;22.20;1.00
24207;DHT22;12351;52.284;9.160;2023-07-13T11:47:09;22.30;1.00
24207;DHT22;12351;52.284;9.160;2023-07-13T11:49:56;22.40;1.00
24207;DHT22;12351;52.284;9.160;2023-07-13T11:52:44;22.40;1.00
24207;DHT22;12351;52.284;9.160;2023-07-13T11:55:31;22.60;1.00
24207;DHT22;12351;52.284;9.160;2023-07-13T11:58:23;22.80;1.00
24207;DHT22;12351;52.284;9.160;2023-07-13T12:04:02;22.70;1.00
24207;DHT22;12351;52.284;9.160;2023-07-13T12:09:38;22.60;1.00
24207;DHT22;12351;52.284;9.160;2023-07-13T12:12:27;22.60;1.00
24207;DHT22;12351;52.284;9.160;2023-07-13T12:15:15;22.60;1.00
24207;DHT22;12351;52.284;9.160;2023-07-13T12:18:02;22.50;1.00
24207;DHT22;12351;52.284;9.160;2023-07-13T12:20:50;22.50;1.00
24207;DHT22;12351;52.284;9.160;2023-07-13T12:23:38;22.40;1.00
24207;DHT22;12351;52.284;9.160;2023-07-13T12:26:26;22.30;1.00
24207;DHT22;12351;52.284;9.160;2023-07-13T12:29:15;22.20;1.00
24207;DHT22;12351;52.284;9.160;2023-07-13T12:32:03;22.10;1.00
24207;DHT22;12351;52.284;9.160;2023-07-13T12:34:54;22.20;1.00
24207;DHT22;12351;52.284;9.160;2023-07-13T12:37:42;22.30;77.00
24207;DHT22;12351;52.284;9.160;2023-07-13T12:40:32;22.40;99.90
24207;DHT22;12351;52.284;9.160;2023-07-13T12:43:21;22.50;99.90
24207;DHT22;12351;52.284;9.160;2023-07-13T12:48:58;22.30;6.90
24207;DHT22;12351;52.284;9.160;2023-07-13T12:51:45;22.30;1.00
24207;DHT22;12351;52.284;9.160;2023-07-13T12:54:34;22.20;1.00
24207;DHT22;12351;52.284;9.160;2023-07-13T12:57:21;22.20;1.00
24207;DHT22;12351;52.284;9.160;2023-07-13T13:05:48;22.20;1.00
24207;DHT22;12351;52.284;9.160;2023-07-13T13:08:36;22.20;1.00
24207;DHT22;12351;52.284;9.160;2023-07-13T13:11:26;22.20;1.00
24207;DHT22;12351;52.284;9.160;2023-07-13T13:14:13;22.20;1.00
24207;DHT22;12351;52.284;9.160;2023-07-13T13:17:00;22.20;1.00
24207;DHT22;12351;52.284;9.160;2023-07-13T13:19:48;22.00;1.00
24207;DHT22;12351;52.284;9.160;2023-07-13T13:22:35;21.90;1.00
24207;DHT22;12351;52.284;9.160;2023-07-13T13:25:22;21.80;1.00
24207;DHT22;12351;52.284;9.160;2023-07-13T13:28:13;21.80;1.00
24207;DHT22;12351;52.284;9.160;2023-07-13T13:30:59;21.50;99.90
24207;DHT22;12351;52.284;9.160;2023-07-13T13:33:46;21.40;1.00
24207;DHT22;12351;52.284;9.160;2023-07-13T13:36:34;21.30;1.00
24207;DHT22;12351;52.284;9.160;2023-07-13T13:39:23;21.30;99.90
24207;DHT22;12351;52.284;9.160;2023-07-13T13:42:11;21.30;99.90
24207;DHT22;12351;52.284;9.160;2023-07-13T13:44:57;21.30;1.00
24207;DHT22;12351;52.284;9.160;2023-07-13T13:47:44;21.30;1.00
24207;DHT22;12351;52.284;9.160;2023-07-13T13:50:33;21.20;99.90
24207;DHT22;12351;52.284;9.160;2023-07-13T13:53:19;21.10;1.00
24207;DHT22;12351;52.284;9.160;2023-07-13T13:56:08;20.50;1.00
24207;DHT22;12351;52.284;9.160;2023-07-13T13:58:54;20.20;1.00
24207;DHT22;12351;52.284;9.160;2023-07-13T14:01:43;20.10;1.00
24207;DHT22;12351;52.284;9.160;2023-07-13T14:04:31;20.20;1.00
24207;DHT22;12351;52.284;9.160;2023-07-13T14:07:17;20.10;1.00
24207;DHT22;12351;52.284;9.160;2023-07-13T14:12:55;20.00;1.00
24207;DHT22;12351;52.284;9.160;2023-07-13T14:15:43;20.10;9.30
24207;DHT22;12351;52.284;9.160;2023-07-13T14:18:29;20.10;99.90
24207;DHT22;12351;52.284;9.160;2023-07-13T14:21:18;20.10;5.60
24207;DHT22;12351;52.284;9.160;2023-07-13T14:24:05;20.10;99.90
24207;DHT22;12351;52.284;9.160;2023-07-13T14:26:53;20.00;1.00
24207;DHT22;12351;52.284;9.160;2023-07-13T14:29:40;19.90;1.00
24207;DHT22;12351;52.284;9.160;2023-07-13T14:32:27;20.00;94.10
24207;DHT22;12351;52.284;9.160;2023-07-13T14:35:14;20.00;99.90
24207;DHT22;12351;52.284;9.160;2023-07-13T14:38:01;20.10;99.90
24207;DHT22;12351;52.284;9.160;2023-07-13T14:40:48;20.10;99.90
24207;DHT22;12351;52.284;9.160;2023-07-13T14:43:35;20.10;99.90
24207;DHT22;12351;52.284;9.160;2023-07-13T14:46:26;20.10;1.00
24207;DHT22;12351;52.284;9.160;2023-07-13T14:52:05;20.10;1.00
24207;DHT22;12351;52.284;9.160;2023-07-13T14:54:51;20.10;1.00
24207;DHT22;12351;52.284;9.160;2023-07-13T14:57:39;20.10;1.00
24207;DHT22;12351;52.284;9.160;2023-07-13T15:00:26;20.00;1.00
24207;DHT22;12351;52.284;9.160;2023-07-13T15:06:03;20.10;1.00
24207;DHT22;12351;52.284;9.160;2023-07-13T15:08:50;20.00;1.00
24207;DHT22;12351;52.284;9.160;2023-07-13T15:11:37;20.20;1.00
24207;DHT22;12351;52.284;9.160;2023-07-13T15:14:24;20.10;1.00
24207;DHT22;12351;52.284;9.160;2023-07-13T15:17:18;20.20;1.00
24207;DHT22;12351;52.284;9.160;2023-07-13T15:20:04;20.10;1.00
24207;DHT22;12351;52.284;9.160;2023-07-13T15:22:51;20.10;1.00
24207;DHT22;12351;52.284;9.160;2023-07-13T15:25:38;20.20;1.00
24207;DHT22;12351;52.284;9.160;2023-07-13T15:28:25;20.20;1.00
24207;DHT22;12351;52.284;9.160;2023-07-13T15:34:03;19.80;1.00
24207;DHT22;12351;52.284;9.160;2023-07-13T15:36:51;19.90;1.00
24207;DHT22;12351;52.284;9.160;2023-07-13T15:39:41;19.90;1.00
24207;DHT22;12351;52.284;9.160;2023-07-13T15:42:28;19.90;1.00
24207;DHT22;12351;52.284;9.160;2023-07-13T15:45:17;19.90;1.00
24207;DHT22;12351;52.284;9.160;2023-07-13T15:50:59;19.90;1.00
24207;DHT22;12351;52.284;9.160;2023-07-13T15:53:43;20.00;1.00
24207;DHT22;12351;52.284;9.160;2023-07-13T15:56:34;19.90;1.00
24207;DHT22;12351;52.284;9.160;2023-07-13T15:59:20;19.90;1.00
24207;DHT22;12351;52.284;9.160;2023-07-13T16:04:57;20.00;1.00
24207;DHT22;12351;52.284;9.160;2023-07-13T16:07:46;19.90;1.00
24207;DHT22;12351;52.284;9.160;2023-07-13T16:10:35;19.90;1.00
24207;DHT22;12351;52.284;9.160;2023-07-13T16:13:24;19.90;1.00
24207;DHT22;12351;52.284;9.160;2023-07-13T16:16:12;19.90;1.00
24207;DHT22;12351;52.284;9.160;2023-07-13T16:19:02;19.90;1.00
24207;DHT22;12351;52.284;9.160;2023-07-13T16:21:50;19.90;1.00
24207;DHT22;12351;52.284;9.160;2023-07-13T16:24:37;19.90;1.00
24207;DHT22;12351;52.284;9.160;2023-07-13T16:27:24;19.80;1.00
24207;DHT22;12351;52.284;9.160;2023-07-13T16:30:14;19.80;1.00
24207;DHT22;12351;52.284;9.160;2023-07-13T16:33:02;19.90;1.00
24207;DHT22;12351;52.284;9.160;2023-07-13T16:35:51;19.80;1.00
24207;DHT22;12351;52.284;9.160;2023-07-13T16:38:38;19.90;1.00
24207;DHT22;12351;52.284;9.160;2023-07-13T16:41:25;19.90;1.00
24207;DHT22;12351;52.284;9.160;2023-07-13T16:44:13;19.90;1.00
24207;DHT22;12351;52.284;9.160;2023-07-13T16:47:02;19.80;1.00
24207;DHT22;12351;52.284;9.160;2023-07-13T16:49:49;19.70;1.00
24207;DHT22;12351;52.284;9.160;2023-07-13T16:52:37;19.80;1.00
24207;DHT22;12351;52.284;9.160;2023-07-13T16:55:26;19.80;1.00
24207;DHT22;12351;52.284;9.160;2023-07-13T16:58:14;19.80;1.00
24207;DHT22;12351;52.284;9.160;2023-07-13T17:01:02;19.70;1.00
24207;DHT22;12351;52.284;9.160;2023-07-13T17:03:49;19.80;1.00
24207;DHT22;12351;52.284;9.160;2023-07-13T17:06:38;19.80;1.00
24207;DHT22;12351;52.284;9.160;2023-07-13T17:09:26;19.80;1.00
24207;DHT22;12351;52.284;9.160;2023-07-13T17:12:13;19.80;1.00
24207;DHT22;12351;52.284;9.160;2023-07-13T17:15:02;19.90;1.00
24207;DHT22;12351;52.284;9.160;2023-07-13T17:17:51;20.00;1.00
24207;DHT22;12351;52.284;9.160;2023-07-13T17:20:40;20.00;1.00
24207;DHT22;12351;52.284;9.160;2023-07-13T17:23:28;20.10;1.00
24207;DHT22;12351;52.284;9.160;2023-07-13T17:26:15;20.10;99.90
24207;DHT22;12351;52.284;9.160;2023-07-13T17:29:02;20.00;99.90
24207;DHT22;12351;52.284;9.160;2023-07-13T17:31:50;20.00;99.90
24207;DHT22;12351;52.284;9.160;2023-07-13T17:34:37;20.00;99.90
24207;DHT22;12351;52.284;9.160;2023-07-13T17:37:25;20.00;99.90
24207;DHT22;12351;52.284;9.160;2023-07-13T17:40:14;20.10;99.90
24207;DHT22;12351;52.284;9.160;2023-07-13T17:43:02;20.10;99.90
24207;DHT22;12351;52.284;9.160;2023-07-13T17:45:50;20.20;99.90
24207;DHT22;12351;52.284;9.160;2023-07-13T17:48:41;20.30;99.90
24207;DHT22;12351;52.284;9.160;2023-07-13T17:51:28;20.50;99.90
24207;DHT22;12351;52.284;9.160;2023-07-13T17:54:16;20.60;99.90
24207;DHT22;12351;52.284;9.160;2023-07-13T17:57:05;20.60;99.90
24207;DHT22;12351;52.284;9.160;2023-07-13T17:59:51;20.70;99.90
24207;DHT22;12351;52.284;9.160;2023-07-13T18:02:40;20.70;99.90
24207;DHT22;12351;52.284;9.160;2023-07-13T18:05:27;20.80;99.90
24207;DHT22;12351;52.284;9.160;2023-07-13T18:11:08;20.80;52.00
24207;DHT22;12351;52.284;9.160;2023-07-13T18:13:54;20.80;99.90
24207;DHT22;12351;52.284;9.160;2023-07-13T18:16:45;20.80;14.70
24207;DHT22;12351;52.284;9.160;2023-07-13T18:19:33;20.80;1.00
24207;DHT22;12351;52.284;9.160;2023-07-13T18:22:20;20.70;58.90
24207;DHT22;12351;52.284;9.160;2023-07-13T18:27:57;20.70;39.10
24207;DHT22;12351;52.284;9.160;2023-07-13T18:30:49;20.60;99.90
24207;DHT22;12351;52.284;9.160;2023-07-13T18:33:33;20.60;54.60
24207;DHT22;12351;52.284;9.160;2023-07-13T18:36:21;20.70;99.90
24207;DHT22;12351;52.284;9.160;2023-07-13T18:39:12;20.70;15.00
24207;DHT22;12351;52.284;9.160;2023-07-13T18:41:59;20.60;33.20
24207;DHT22;12351;52.284;9.160;2023-07-13T18:44:46;20.60;1.00
24207;DHT22;12351;52.284;9.160;2023-07-13T18:47:33;20.50;1.00
24207;DHT22;12351;52.284;9.160;2023-07-13T18:50:24;20.50;1.00
24207;DHT22;12351;52.284;9.160;2023-07-13T18:53:12;20.50;63.60
24207;DHT22;12351;52.284;9.160;2023-07-13T18:56:01;20.50;21.30
24207;DHT22;12351;52.284;9.160;2023-07-13T18:58:49;20.40;1.00
24207;DHT22;12351;52.284;9.160;2023-07-13T19:01:36;20.40;1.00
24207;DHT22;12351;52.284;9.160;2023-07-13T19:07:14;20.30;43.40
24207;DHT22;12351;52.284;9.160;2023-07-13T19:10:01;20.30;99.90
24207;DHT22;12351;52.284;9.160;2023-07-13T19:12:51;20.40;99.90
24207;DHT22;12351;52.284;9.160;2023-07-13T19:15:38;20.30;99.90
24207;DHT22;12351;52.284;9.160;2023-07-13T19:18:25;20.30;99.90
24207;DHT22;12351;52.284;9.160;2023-07-13T19:21:18;20.30;99.90
24207;DHT22;12351;52.284;9.160;2023-07-13T19:24:02;20.20;99.90